Time;durP1;ratioP1;P1;durP2;ratioP2;P2;SDS_P1;SDS_P2;PMS_P1;PMS_P2;Temp;Humidity;BMP_temperature;BMP_pressure;BME280_temperature;BME280_humidity;BME280_pressure;Samples;Min_cycle;Max_cycle;Signal;HPM_P1;HPM_P2
2023/01/02 00:01:05;;;;;;;6.53;1.90;;;;;;;;;;5092273;28;20056;-56
2023/01/02 00:03:31;;;;;;;11.93;2.83;;;;;;;;;;5093125;28;20094;-57
2023/01/02 00:06:00;;;;;;;11.82;2.13;;;;;;;;;;5093035;28;20048;-57
2023/01/02 00:08:27;;;;;;;16.30;2.78;;;;;;;;;;5093120;28;20123;-56
2023/01/02 00:10:53;;;;;;;8.98;2.08;;;;;;;;;;5093325;28;20051;-57
2023/01/02 00:13:19;;;;;;;14.63;3.28;;;;;;;;;;5093040;28;20048;-57
2023/01/02 00:15:46;;;;;;;11.95;2.75;;;;;;;;;;5092802;28;20499;-56
2023/01/02 00:18:12;;;;;;;14.57;2.60;;;;;;;;;;5093216;28;20136;-57
2023/01/02 00:20:39;;;;;;;11.23;2.60;;;;;;;;;;5092834;28;20055;-57
2023/01/02 00:23:05;;;;;;;14.48;2.38;;;;;;;;;;5092900;28;20052;-56
2023/01/02 00:25:33;;;;;;;7.22;2.08;;;;;;;;;;5092573;28;20044;-56
2023/01/02 00:28:00;;;;;;;10.90;2.10;;;;;;;;;;5092705;28;20040;-57
2023/01/02 00:30:26;;;;;;;18.98;2.85;;;;;;;;;;5092975;28;20050;-57
2023/01/02 00:33:01;;;;;;;8.88;1.83;;;;;;;;;;5092823;28;20514;-58
2023/01/02 00:35:27;;;;;;;11.93;2.30;;;;;;;;;;5092945;28;20059;-58
2023/01/02 00:37:53;;;;;;;11.07;2.10;;;;;;;;;;5092828;28;20130;-58
2023/01/02 00:40:20;;;;;;;10.65;2.60;;;;;;;;;;5092586;28;20054;-57
2023/01/02 00:42:46;;;;;;;12.85;2.45;;;;;;;;;;5092467;28;20058;-57
2023/01/02 00:45:12;;;;;;;12.98;3.00;;;;;;;;;;5092561;28;20093;-57
2023/01/02 00:47:39;;;;;;;10.35;2.22;;;;;;;;;;5092367;28;20050;-57
2023/01/02 00:50:05;;;;;;;11.18;2.13;;;;;;;;;;5092529;28;20472;-58
2023/01/02 00:52:32;;;;;;;9.68;2.40;;;;;;;;;;5092319;28;20040;-57
2023/01/02 00:54:58;;;;;;;11.02;2.00;;;;;;;;;;5091513;28;20048;-57
2023/01/02 00:57:25;;;;;;;12.88;3.03;;;;;;;;;;5092189;28;20040;-57
2023/01/02 00:59:51;;;;;;;9.88;2.10;;;;;;;;;;5092325;28;20044;-57
2023/01/02 01:02:17;;;;;;;12.77;2.30;;;;;;;;;;5092571;28;20043;-57
2023/01/02 01:04:44;;;;;;;9.65;2.00;;;;;;;;;;5092125;28;20122;-56
2023/01/02 01:07:10;;;;;;;11.20;2.17;;;;;;;;;;5092252;28;20044;-56
2023/01/02 01:09:36;;;;;;;8.05;1.80;;;;;;;;;;5091987;28;20614;-56
2023/01/02 01:12:03;;;;;;;14.25;2.45;;;;;;;;;;5092196;28;20135;-56
2023/01/02 01:14:30;;;;;;;12.68;2.50;;;;;;;;;;5091979;28;20068;-56
2023/01/02 01:16:58;;;;;;;18.35;4.63;;;;;;;;;;5092226;28;20052;-57
2023/01/02 01:19:27;;;;;;;15.13;4.22;;;;;;;;;;5091991;28;20051;-56
2023/01/02 01:21:54;;;;;;;15.57;3.80;;;;;;;;;;5092031;28;20494;-56
2023/01/02 01:24:20;;;;;;;12.95;3.20;;;;;;;;;;5091991;28;20051;-57
2023/01/02 01:26:46;;;;;;;9.30;2.15;;;;;;;;;;5091635;28;20071;-56
2023/01/02 01:29:13;;;;;;;13.57;3.17;;;;;;;;;;5091854;28;20167;-56
2023/01/02 01:31:39;;;;;;;16.92;2.75;;;;;;;;;;5091698;28;20040;-57
2023/01/02 01:34:06;;;;;;;13.00;3.08;;;;;;;;;;5091856;28;20058;-56
2023/01/02 01:36:35;;;;;;;14.45;2.55;;;;;;;;;;5091674;28;20087;-57
2023/01/02 01:39:01;;;;;;;11.10;2.28;;;;;;;;;;5091653;28;20055;-57
2023/01/02 01:41:27;;;;;;;17.08;2.85;;;;;;;;;;5091577;28;20058;-57
2023/01/02 01:43:58;;;;;;;11.32;2.20;;;;;;;;;;5091689;28;20060;-57
2023/01/02 01:46:27;;;;;;;10.60;2.60;;;;;;;;;;5091660;28;20044;-57
2023/01/02 01:48:57;;;;;;;11.65;2.15;;;;;;;;;;5091748;28;20044;-56
2023/01/02 01:51:25;;;;;;;14.63;2.20;;;;;;;;;;5091790;28;20135;-56
2023/01/02 01:53:55;;;;;;;13.02;2.08;;;;;;;;;;5091912;28;20058;-57
2023/01/02 01:56:22;;;;;;;11.30;2.10;;;;;;;;;;5091589;28;20575;-56
2023/01/02 01:58:48;;;;;;;10.90;2.20;;;;;;;;;;5091758;28;20051;-57
2023/01/02 02:01:15;;;;;;;10.68;1.92;;;;;;;;;;5091562;28;20052;-57
2023/01/02 02:03:44;;;;;;;14.38;2.25;;;;;;;;;;5091422;28;20058;-56
2023/01/02 02:06:11;;;;;;;17.30;3.25;;;;;;;;;;5094257;28;20067;-57
2023/01/02 02:08:44;;;;;;;12.05;2.50;;;;;;;;;;5095709;28;20044;-57
2023/01/02 02:11:12;;;;;;;15.30;2.25;;;;;;;;;;5095616;28;20128;-57
2023/01/02 02:13:39;;;;;;;14.05;2.20;;;;;;;;;;5095624;28;20447;-57
2023/01/02 02:16:05;;;;;;;11.82;2.10;;;;;;;;;;5095475;28;20044;-56
2023/01/02 02:18:31;;;;;;;11.27;2.15;;;;;;;;;;5095231;28;20094;-56
2023/01/02 02:21:10;;;;;;;10.23;1.88;;;;;;;;;;5095417;28;20062;-56
2023/01/02 02:24:01;;;;;;;12.35;2.03;;;;;;;;;;5095434;28;20079;-56
2023/01/02 02:26:27;;;;;;;13.63;1.88;;;;;;;;;;5094949;28;20127;-57
2023/01/02 02:29:12;;;;;;;15.40;2.80;;;;;;;;;;5095306;28;20048;-57
2023/01/02 02:31:42;;;;;;;10.23;1.73;;;;;;;;;;5095308;28;20419;-57
2023/01/02 02:34:20;;;;;;;13.00;2.35;;;;;;;;;;5094946;28;20105;-56
2023/01/02 02:36:53;;;;;;;10.90;2.20;;;;;;;;;;5094985;28;20058;-57
2023/01/02 02:39:29;;;;;;;11.82;2.05;;;;;;;;;;5094830;28;20052;-58
2023/01/02 02:42:15;;;;;;;10.18;2.10;;;;;;;;;;5095132;28;20422;-58
2023/01/02 02:44:52;;;;;;;12.15;2.17;;;;;;;;;;5084207;28;20494;-57
2023/01/02 02:47:19;;;;;;;10.47;2.40;;;;;;;;;;5094721;28;20050;-57
2023/01/02 02:49:45;;;;;;;12.23;2.10;;;;;;;;;;5094562;28;20048;-58
2023/01/02 02:52:11;;;;;;;16.95;2.33;;;;;;;;;;5094914;28;20044;-57
2023/01/02 02:54:41;;;;;;;12.05;1.95;;;;;;;;;;5094499;28;20055;-57
2023/01/02 02:57:08;;;;;;;16.98;2.40;;;;;;;;;;5094507;28;20051;-58
2023/01/02 02:59:35;;;;;;;15.65;2.60;;;;;;;;;;5094805;28;20139;-57
2023/01/02 03:02:02;;;;;;;11.53;2.00;;;;;;;;;;5094395;28;20118;-57
2023/01/02 03:04:29;;;;;;;20.52;2.83;;;;;;;;;;5094334;28;20051;-56
2023/01/02 03:06:55;;;;;;;12.18;2.65;;;;;;;;;;5094430;28;20047;-56
2023/01/02 03:09:32;;;;;;;12.75;2.42;;;;;;;;;;5094565;28;20052;-57
2023/01/02 03:11:58;;;;;;;11.50;2.78;;;;;;;;;;5094332;28;20051;-57
2023/01/02 03:14:36;;;;;;;17.45;3.15;;;;;;;;;;5094483;28;20047;-58
2023/01/02 03:17:06;;;;;;;14.98;3.42;;;;;;;;;;5093300;28;20058;-57
2023/01/02 03:19:36;;;;;;;15.15;3.40;;;;;;;;;;5094258;28;20149;-57
2023/01/02 03:22:22;;;;;;;17.90;3.25;;;;;;;;;;5094057;28;20048;-57
2023/01/02 03:24:50;;;;;;;11.05;2.88;;;;;;;;;;5094280;28;20047;-57
2023/01/02 03:27:19;;;;;;;13.98;3.42;;;;;;;;;;5093712;28;20427;-58
2023/01/02 03:29:48;;;;;;;14.65;4.07;;;;;;;;;;5093874;28;20517;-57
2023/01/02 03:32:22;;;;;;;13.65;3.63;;;;;;;;;;5094245;28;20054;-57
2023/01/02 03:34:49;;;;;;;16.50;4.15;;;;;;;;;;5094120;28;20426;-58
2023/01/02 03:37:19;;;;;;;13.50;4.03;;;;;;;;;;5093857;28;20058;-57
2023/01/02 03:39:50;;;;;;;16.73;4.10;;;;;;;;;;5093616;28;20064;-57
2023/01/02 03:42:26;;;;;;;18.63;5.03;;;;;;;;;;5093932;28;20134;-58
2023/01/02 03:44:58;;;;;;;14.68;4.80;;;;;;;;;;5093596;28;20052;-57
2023/01/02 03:47:24;;;;;;;19.58;4.88;;;;;;;;;;5093510;28;20480;-58
2023/01/02 03:49:52;;;;;;;22.58;5.72;;;;;;;;;;5093774;28;20055;-58
2023/01/02 03:52:19;;;;;;;14.95;5.15;;;;;;;;;;5093410;28;20055;-58
2023/01/02 03:54:51;;;;;;;16.25;5.30;;;;;;;;;;5093671;28;20044;-57
2023/01/02 03:57:26;;;;;;;15.18;5.45;;;;;;;;;;5093378;28;20044;-57
2023/01/02 04:00:07;;;;;;;12.77;5.05;;;;;;;;;;5093196;28;20044;-57
2023/01/02 04:02:51;;;;;;;18.23;7.47;;;;;;;;;;5093165;28;20048;-58
2023/01/02 04:05:22;;;;;;;19.40;6.63;;;;;;;;;;5093418;28;20056;-57
2023/01/02 04:07:57;;;;;;;19.90;6.78;;;;;;;;;;5093230;28;20123;-57
2023/01/02 04:10:24;;;;;;;21.58;7.20;;;;;;;;;;5093390;28;20048;-58
2023/01/02 04:12:52;;;;;;;21.83;8.52;;;;;;;;;;5093086;28;20048;-57
2023/01/02 04:15:20;;;;;;;22.33;8.05;;;;;;;;;;5092953;28;20076;-57
2023/01/02 04:17:49;;;;;;;25.10;8.60;;;;;;;;;;5093256;28;20101;-58
2023/01/02 04:20:18;;;;;;;19.60;7.30;;;;;;;;;;5093308;28;20046;-57
2023/01/02 04:22:49;;;;;;;18.50;5.82;;;;;;;;;;5093228;28;20052;-58
2023/01/02 04:25:17;;;;;;;13.13;5.22;;;;;;;;;;5092697;28;20061;-58
2023/01/02 04:28:01;;;;;;;14.80;4.10;;;;;;;;;;5092744;28;20498;-57
2023/01/02 04:30:28;;;;;;;15.80;4.95;;;;;;;;;;5093186;28;20410;-58
2023/01/02 04:32:56;;;;;;;14.52;4.72;;;;;;;;;;5092978;28;20076;-58
2023/01/02 04:35:23;;;;;;;13.52;4.47;;;;;;;;;;5092966;28;20040;-57
2023/01/02 04:37:50;;;;;;;16.75;6.65;;;;;;;;;;5092961;28;20043;-57
2023/01/02 04:40:22;;;;;;;24.80;9.23;;;;;;;;;;5092649;28;20056;-58
2023/01/02 04:42:49;;;;;;;26.33;9.55;;;;;;;;;;5092530;28;20135;-58
2023/01/02 04:45:16;;;;;;;27.45;10.52;;;;;;;;;;5092388;28;20571;-57
2023/01/02 04:47:42;;;;;;;23.10;7.85;;;;;;;;;;5092601;28;20040;-58
2023/01/02 04:50:09;;;;;;;17.52;5.85;;;;;;;;;;5092387;28;20529;-57
2023/01/02 04:52:36;;;;;;;14.77;5.10;;;;;;;;;;5092377;28;20044;-58
2023/01/02 04:55:03;;;;;;;17.45;5.43;;;;;;;;;;5092551;28;20048;-57
2023/01/02 04:57:30;;;;;;;17.65;5.75;;;;;;;;;;5092188;28;20381;-57
2023/01/02 04:59:56;;;;;;;18.60;5.22;;;;;;;;;;5092234;28;20052;-56
2023/01/02 05:02:22;;;;;;;20.67;6.38;;;;;;;;;;5092154;28;20048;-56
2023/01/02 05:04:49;;;;;;;24.10;9.00;;;;;;;;;;5092026;28;20075;-56
2023/01/02 05:07:15;;;;;;;22.10;8.00;;;;;;;;;;5091977;28;20048;-57
2023/01/02 05:09:42;;;;;;;23.70;9.90;;;;;;;;;;5092034;28;20127;-57
2023/01/02 05:12:08;;;;;;;23.00;9.13;;;;;;;;;;5092022;28;20062;-57
2023/01/02 05:14:34;;;;;;;20.35;7.55;;;;;;;;;;5092046;28;20048;-57
2023/01/02 05:17:01;;;;;;;22.75;8.07;;;;;;;;;;5092068;28;20059;-56
2023/01/02 05:19:27;;;;;;;26.55;9.18;;;;;;;;;;5091939;28;20127;-57
2023/01/02 05:24:38;;;;;;;22.70;8.05;;;;;;;;;;5092172;28;20055;-57
2023/01/02 05:27:05;;;;;;;23.27;6.47;;;;;;;;;;5091657;28;20068;-56
2023/01/02 05:29:31;;;;;;;15.13;6.32;;;;;;;;;;5091694;28;20048;-57
2023/01/02 05:31:57;;;;;;;21.20;7.28;;;;;;;;;;5091735;28;20048;-57
2023/01/02 05:34:24;;;;;;;21.73;7.28;;;;;;;;;;5091791;28;20054;-56
2023/01/02 05:36:50;;;;;;;18.67;6.95;;;;;;;;;;5091702;28;20054;-56
2023/01/02 05:39:16;;;;;;;17.85;6.22;;;;;;;;;;5091378;28;20067;-56
2023/01/02 05:41:43;;;;;;;15.93;6.82;;;;;;;;;;5091453;28;20062;-57
2023/01/02 05:44:09;;;;;;;23.65;7.55;;;;;;;;;;5091936;28;20105;-56
2023/01/02 05:46:36;;;;;;;18.35;7.80;;;;;;;;;;5091579;28;20044;-58
2023/01/02 05:49:04;;;;;;;22.43;8.73;;;;;;;;;;5091682;28;20162;-58
2023/01/02 05:51:30;;;;;;;28.73;10.43;;;;;;;;;;5091788;28;20040;-58
2023/01/02 05:53:57;;;;;;;29.75;11.57;;;;;;;;;;5077738;28;20046;-58
2023/01/02 05:56:25;;;;;;;32.85;12.60;;;;;;;;;;5091799;28;20058;-57
2023/01/02 05:58:51;;;;;;;;;;;;;;;;;;5092032;28;20419;-57
2023/01/02 06:01:19;;;;;;;23.83;10.70;;;;;;;;;;5091503;28;20003;-57
2023/01/02 06:03:46;;;;;;;30.08;13.43;;;;;;;;;;5091392;28;20048;-58
2023/01/02 06:06:12;;;;;;;33.10;13.35;;;;;;;;;;5091563;28;20388;-57
2023/01/02 06:08:39;;;;;;;29.83;15.18;;;;;;;;;;5091464;28;20411;-57
2023/01/02 06:11:06;;;;;;;40.28;16.65;;;;;;;;;;5091342;28;20044;-57
2023/01/02 06:13:33;;;;;;;37.42;15.90;;;;;;;;;;5091462;28;20082;-57
2023/01/02 06:16:00;;;;;;;32.47;16.48;;;;;;;;;;5091295;28;20601;-57
2023/01/02 06:18:27;;;;;;;49.67;21.42;;;;;;;;;;5091387;28;20048;-58
2023/01/02 06:21:04;;;;;;;40.90;19.45;;;;;;;;;;5091665;28;20052;-58
2023/01/02 06:23:31;;;;;;;39.70;17.23;;;;;;;;;;5091522;28;20047;-58
2023/01/02 06:26:08;;;;;;;43.42;20.40;;;;;;;;;;5091211;28;20052;-58
2023/01/02 06:28:34;;;;;;;43.83;18.90;;;;;;;;;;5091454;28;20086;-58
2023/01/02 06:31:01;;;;;;;38.38;18.17;;;;;;;;;;5091495;28;20044;-57
2023/01/02 06:33:28;;;;;;;40.53;19.10;;;;;;;;;;5091358;28;20064;-58
2023/01/02 06:35:56;;;;;;;37.22;17.52;;;;;;;;;;5091569;28;20047;-57
2023/01/02 06:38:22;;;;;;;35.95;17.77;;;;;;;;;;5091375;28;20050;-57
2023/01/02 06:40:56;;;;;;;40.38;19.02;;;;;;;;;;5091745;28;20048;-57
2023/01/02 06:43:23;;;;;;;36.95;19.42;;;;;;;;;;5091075;28;20134;-57
2023/01/02 06:45:50;;;;;;;51.28;23.20;;;;;;;;;;5091103;28;20479;-57
2023/01/02 06:48:16;;;;;;;46.17;22.23;;;;;;;;;;5091216;28;20131;-57
2023/01/02 06:50:43;;;;;;;37.30;19.20;;;;;;;;;;5091048;28;20403;-57
2023/01/02 06:53:10;;;;;;;30.60;17.63;;;;;;;;;;5093718;28;20044;-57
2023/01/02 06:55:36;;;;;;;31.90;17.17;;;;;;;;;;5094477;28;20522;-56
2023/01/02 06:58:03;;;;;;;32.83;17.60;;;;;;;;;;5094819;28;20062;-56
2023/01/02 07:00:37;;;;;;;35.55;18.92;;;;;;;;;;5094519;28;20491;-57
2023/01/02 07:03:04;;;;;;;40.50;20.27;;;;;;;;;;5094437;28;20065;-56
2023/01/02 07:05:30;;;;;;;35.83;19.17;;;;;;;;;;5094228;28;20043;-56
2023/01/02 07:07:56;;;;;;;34.25;18.05;;;;;;;;;;5094152;28;20059;-56
2023/01/02 07:10:23;;;;;;;37.85;19.58;;;;;;;;;;5094568;28;20044;-57
2023/01/02 07:12:49;;;;;;;28.70;15.98;;;;;;;;;;5094385;28;20051;-57
2023/01/02 07:15:15;;;;;;;23.00;15.32;;;;;;;;;;5094426;28;20047;-57
2023/01/02 07:17:42;;;;;;;22.17;14.05;;;;;;;;;;5094244;28;20051;-56
2023/01/02 07:20:08;;;;;;;35.67;17.30;;;;;;;;;;5094283;28;20139;-56
2023/01/02 07:22:35;;;;;;;31.88;16.33;;;;;;;;;;5094164;28;20400;-57
2023/01/02 07:25:01;;;;;;;32.03;16.38;;;;;;;;;;5093816;28;20591;-57
2023/01/02 07:27:28;;;;;;;34.08;17.85;;;;;;;;;;5094250;28;20076;-56
2023/01/02 07:29:55;;;;;;;34.38;15.93;;;;;;;;;;5094282;28;20047;-57
2023/01/02 07:32:22;;;;;;;26.73;15.25;;;;;;;;;;5093959;28;20048;-56
2023/01/02 07:34:53;;;;;;;35.60;17.92;;;;;;;;;;5093876;28;20180;-57
2023/01/02 07:37:19;;;;;;;32.65;17.02;;;;;;;;;;5093761;28;20074;-57
2023/01/02 07:39:45;;;;;;;25.10;13.93;;;;;;;;;;5094187;28;20419;-56
2023/01/02 07:42:12;;;;;;;28.58;16.02;;;;;;;;;;5093785;28;20511;-56
2023/01/02 07:44:38;;;;;;;30.95;17.75;;;;;;;;;;5093961;28;20066;-56
2023/01/02 07:47:04;;;;;;;36.40;18.88;;;;;;;;;;5093638;28;20052;-57
2023/01/02 07:49:31;;;;;;;20.92;12.50;;;;;;;;;;5093573;28;20048;-57
2023/01/02 07:51:57;;;;;;;20.48;12.00;;;;;;;;;;5093339;28;20131;-57
2023/01/02 07:54:23;;;;;;;17.67;12.10;;;;;;;;;;5093758;28;20047;-57
2023/01/02 07:56:51;;;;;;;20.20;12.05;;;;;;;;;;5093416;28;20040;-57
2023/01/02 07:59:17;;;;;;;17.60;11.02;;;;;;;;;;5093382;28;20401;-57
2023/01/02 08:01:43;;;;;;;19.50;12.05;;;;;;;;;;5093260;28;20415;-57
2023/01/02 08:04:10;;;;;;;17.58;11.15;;;;;;;;;;5091918;28;20476;-57
2023/01/02 08:06:40;;;;;;;21.08;11.57;;;;;;;;;;5093098;28;20043;-57
2023/01/02 08:09:06;;;;;;;18.73;11.52;;;;;;;;;;5092666;28;20495;-57
2023/01/02 08:11:33;;;;;;;18.92;12.40;;;;;;;;;;5092758;28;20481;-57
2023/01/02 08:13:59;;;;;;;21.33;12.43;;;;;;;;;;5092595;28;20399;-57
2023/01/02 08:16:25;;;;;;;19.65;12.45;;;;;;;;;;5093069;28;20048;-57
2023/01/02 08:18:54;;;;;;;17.02;11.23;;;;;;;;;;5092472;28;20052;-56
2023/01/02 08:21:21;;;;;;;18.73;12.50;;;;;;;;;;5092771;28;20119;-56
2023/01/02 08:23:48;;;;;;;23.20;16.47;;;;;;;;;;5092628;28;20068;-57
2023/01/02 08:26:14;;;;;;;24.35;14.52;;;;;;;;;;5092037;28;20496;-58
2023/01/02 08:28:40;;;;;;;18.85;10.93;;;;;;;;;;5092189;28;20043;-57
2023/01/02 08:31:13;;;;;;;10.80;8.15;;;;;;;;;;5084588;28;20079;-57
2023/01/02 08:33:40;;;;;;;13.60;9.05;;;;;;;;;;5078763;28;20044;-57
2023/01/02 08:36:07;;;;;;;9.95;8.15;;;;;;;;;;5090781;28;20083;-57
2023/01/02 08:38:33;;;;;;;13.75;10.00;;;;;;;;;;5092387;28;20057;-57
2023/01/02 08:41:00;;;;;;;14.07;9.80;;;;;;;;;;5091746;28;20131;-58
2023/01/02 08:43:26;;;;;;;13.18;10.20;;;;;;;;;;5092062;28;20415;-58
2023/01/02 08:45:53;;;;;;;11.38;9.35;;;;;;;;;;5092227;28;20126;-58
2023/01/02 08:48:20;;;;;;;15.05;8.00;;;;;;;;;;5091812;28;20052;-57
2023/01/02 08:50:47;;;;;;;10.23;7.53;;;;;;;;;;5091953;28;20056;-58
2023/01/02 08:53:14;;;;;;;14.30;10.02;;;;;;;;;;5092009;28;20236;-57
2023/01/02 08:55:40;;;;;;;13.98;10.05;;;;;;;;;;5091941;28;20047;-57
2023/01/02 08:58:07;;;;;;;12.93;9.85;;;;;;;;;;5088679;28;20673;-57
2023/01/02 09:00:33;;;;;;;12.63;10.20;;;;;;;;;;5091867;28;20050;-57
2023/01/02 09:03:00;;;;;;;13.65;9.63;;;;;;;;;;5091541;28;20058;-57
2023/01/02 09:05:29;;;;;;;10.55;8.60;;;;;;;;;;5091686;28;20055;-57
2023/01/02 09:07:57;;;;;;;8.32;7.53;;;;;;;;;;5091688;28;20048;-57
2023/01/02 09:10:23;;;;;;;8.05;7.25;;;;;;;;;;5091332;28;20093;-58
2023/01/02 09:12:50;;;;;;;7.45;5.18;;;;;;;;;;5091251;28;20047;-57
2023/01/02 09:15:16;;;;;;;5.30;4.72;;;;;;;;;;5090301;28;20058;-59
2023/01/02 09:17:43;;;;;;;7.68;5.20;;;;;;;;;;5091570;28;20048;-57
2023/01/02 09:20:09;;;;;;;6.90;5.43;;;;;;;;;;5091495;28;20056;-57
2023/01/02 09:22:35;;;;;;;8.82;5.70;;;;;;;;;;5091232;28;20055;-57
2023/01/02 09:25:03;;;;;;;5.78;4.75;;;;;;;;;;5090899;28;20044;-57
2023/01/02 09:27:30;;;;;;;9.07;6.70;;;;;;;;;;5090877;28;20076;-57
2023/01/02 09:29:56;;;;;;;7.88;6.90;;;;;;;;;;5089184;28;20048;-57
2023/01/02 09:32:22;;;;;;;13.35;10.60;;;;;;;;;;5091106;28;20050;-57
2023/01/02 09:34:49;;;;;;;15.70;11.70;;;;;;;;;;5091331;28;20048;-57
2023/01/02 09:37:16;;;;;;;16.33;14.63;;;;;;;;;;5091459;28;20040;-57
2023/01/02 09:39:43;;;;;;;14.82;13.32;;;;;;;;;;5090996;28;20047;-57
2023/01/02 09:42:12;;;;;;;12.50;10.35;;;;;;;;;;5090716;28;20052;-57
2023/01/02 09:44:42;;;;;;;8.70;7.32;;;;;;;;;;5089957;28;20136;-57
2023/01/02 09:47:22;;;;;;;9.05;7.20;;;;;;;;;;5090870;28;20105;-57
2023/01/02 09:49:53;;;;;;;10.75;7.57;;;;;;;;;;5091342;28;20097;-56
2023/01/02 09:52:25;;;;;;;10.18;7.07;;;;;;;;;;5090875;28;20492;-57
2023/01/02 09:54:52;;;;;;;7.60;6.93;;;;;;;;;;5091036;28;20048;-57
2023/01/02 09:57:27;;;;;;;8.35;5.97;;;;;;;;;;5091064;28;20044;-56
2023/01/02 10:00:02;;;;;;;6.10;5.50;;;;;;;;;;5090940;28;20376;-57
2023/01/02 10:02:44;;;;;;;7.93;6.75;;;;;;;;;;5091169;28;20040;-56
2023/01/02 10:05:10;;;;;;;5.80;5.20;;;;;;;;;;5090292;28;20048;-57
2023/01/02 10:07:43;;;;;;;12.00;10.93;;;;;;;;;;5090964;28;20056;-56
2023/01/02 10:10:26;;;;;;;16.80;15.25;;;;;;;;;;5088709;28;20158;-57
2023/01/02 10:13:04;;;;;;;18.52;16.60;;;;;;;;;;5091060;28;20044;-56
2023/01/02 10:15:31;;;;;;;21.90;18.17;;;;;;;;;;5090727;28;20076;-57
2023/01/02 10:17:59;;;;;;;21.10;18.90;;;;;;;;;;5090142;28;20511;-57
2023/01/02 10:20:34;;;;;;;13.77;12.48;;;;;;;;;;5090320;28;20488;-57
2023/01/02 10:23:03;;;;;;;10.88;9.77;;;;;;;;;;5090321;28;20097;-66
2023/01/02 10:25:32;;;;;;;5.07;4.57;;;;;;;;;;5090439;28;20052;-65
2023/01/02 10:28:19;;;;;;;2.60;2.40;;;;;;;;;;5093976;28;20455;-61
2023/01/02 10:30:49;;;;;;;4.55;2.38;;;;;;;;;;5054189;28;20083;-65
2023/01/02 10:33:18;;;;;;;3.33;2.47;;;;;;;;;;5094679;28;20380;-65
2023/01/02 10:35:56;;;;;;;3.80;2.65;;;;;;;;;;5094305;28;20052;-58
2023/01/02 10:38:23;;;;;;;6.00;4.63;;;;;;;;;;5094543;28;20062;-64
2023/01/02 10:40:50;;;;;;;22.10;19.10;;;;;;;;;;5094542;28;20048;-62
2023/01/02 10:43:17;;;;;;;9.07;7.83;;;;;;;;;;5094465;28;20136;-62
2023/01/02 10:45:43;;;;;;;5.07;4.60;;;;;;;;;;5094375;28;20281;-62
2023/01/02 10:48:10;;;;;;;3.45;2.58;;;;;;;;;;5094342;28;20044;-61
2023/01/02 10:50:41;;;;;;;2.00;1.73;;;;;;;;;;5094056;28;20462;-65
2023/01/02 10:53:17;;;;;;;1.77;1.60;;;;;;;;;;5093910;28;20126;-64
2023/01/02 10:55:44;;;;;;;1.73;1.60;;;;;;;;;;5094395;28;20419;-62
2023/01/02 10:58:21;;;;;;;2.47;2.20;;;;;;;;;;5090211;28;20086;-62
2023/01/02 11:00:49;;;;;;;3.20;2.50;;;;;;;;;;5073885;28;20458;-61
2023/01/02 11:03:19;;;;;;;3.75;3.45;;;;;;;;;;5073716;28;20052;-61
2023/01/02 11:05:47;;;;;;;2.47;1.98;;;;;;;;;;5074605;28;20063;-64
2023/01/02 11:08:16;;;;;;;1.50;1.40;;;;;;;;;;5093915;28;20401;-62
2023/01/02 11:10:42;;;;;;;2.10;1.85;;;;;;;;;;5094111;28;20043;-62
2023/01/02 11:13:09;;;;;;;;;;;;;;;;;;5094376;28;20056;-58
2023/01/02 11:15:43;;;;;;;7.78;5.00;;;;;;;;;;5094046;28;19930;-57
2023/01/02 11:18:15;;;;;;;2.45;2.25;;;;;;;;;;5093465;28;20048;-58
2023/01/02 11:20:46;;;;;;;1.63;1.45;;;;;;;;;;5093910;28;20058;-58
2023/01/02 11:23:13;;;;;;;1.83;1.10;;;;;;;;;;5093853;28;20058;-58
2023/01/02 11:25:40;;;;;;;1.83;1.40;;;;;;;;;;5091639;28;20062;-58
2023/01/02 11:28:14;;;;;;;2.30;1.33;;;;;;;;;;5093545;28;20048;-58
2023/01/02 11:30:49;;;;;;;1.15;0.95;;;;;;;;;;5091365;28;20044;-58
2023/01/02 11:33:36;;;;;;;1.63;1.20;;;;;;;;;;5093427;28;20543;-58
2023/01/02 11:36:02;;;;;;;1.17;0.70;;;;;;;;;;5093109;28;20044;-58
2023/01/02 11:38:47;;;;;;;0.85;0.70;;;;;;;;;;5092223;28;20523;-58
2023/01/02 11:44:23;;;;;;;1.48;0.90;;;;;;;;;;5079447;28;20163;-58
2023/01/02 11:46:51;;;;;;;0.93;0.63;;;;;;;;;;5092743;28;20058;-58
2023/01/02 11:49:23;;;;;;;0.77;0.70;;;;;;;;;;5092821;28;20438;-58
2023/01/02 11:51:54;;;;;;;1.90;0.60;;;;;;;;;;5093004;28;20488;-57
2023/01/02 11:54:22;;;;;;;0.95;0.40;;;;;;;;;;5093201;28;20130;-58
2023/01/02 11:56:49;;;;;;;1.15;0.47;;;;;;;;;;5092630;28;20055;-58
2023/01/02 11:59:15;;;;;;;1.58;0.57;;;;;;;;;;5092647;28;20059;-58
2023/01/02 12:01:45;;;;;;;1.15;0.47;;;;;;;;;;5092290;28;20501;-58
2023/01/02 12:04:12;;;;;;;0.60;0.60;;;;;;;;;;5092857;28;20407;-58
2023/01/02 12:06:57;;;;;;;1.13;0.57;;;;;;;;;;5092862;28;20048;-58
2023/01/02 12:09:42;;;;;;;0.85;0.52;;;;;;;;;;5092525;28;20051;-57
2023/01/02 12:12:15;;;;;;;1.10;0.47;;;;;;;;;;5085920;28;20071;-57
2023/01/02 12:14:50;;;;;;;0.40;0.40;;;;;;;;;;5092193;28;20048;-58
2023/01/02 12:17:35;;;;;;;0.57;0.35;;;;;;;;;;5091615;28;20549;-57
2023/01/02 12:20:08;;;;;;;0.40;0.40;;;;;;;;;;5092658;28;20062;-58
2023/01/02 12:22:34;;;;;;;1.58;0.40;;;;;;;;;;5092186;28;20052;-58
2023/01/02 12:25:00;;;;;;;1.65;0.30;;;;;;;;;;5092227;28;20091;-58
2023/01/02 12:27:27;;;;;;;;;;;;;;;;;;5090569;28;20083;-58
2023/01/02 12:29:59;;;;;;;1.05;0.65;;;;;;;;;;5087692;28;20359;-58
2023/01/02 12:32:36;;;;;;;2.45;0.80;;;;;;;;;;5092285;28;20399;-58
2023/01/02 12:35:11;;;;;;;2.33;0.98;;;;;;;;;;5092138;28;20070;-58
2023/01/02 12:37:53;;;;;;;1.20;0.80;;;;;;;;;;5077983;28;20050;-58
2023/01/02 12:40:28;;;;;;;2.00;1.52;;;;;;;;;;5092043;28;20052;-57
2023/01/02 12:43:18;;;;;;;2.72;1.70;;;;;;;;;;5092363;28;20063;-58
2023/01/02 12:45:53;;;;;;;2.25;1.10;;;;;;;;;;5080135;28;20134;-58
2023/01/02 12:48:29;;;;;;;1.67;1.07;;;;;;;;;;5081733;28;20510;-58
2023/01/02 12:50:55;;;;;;;3.13;1.20;;;;;;;;;;5091001;28;20276;-58
2023/01/02 12:53:46;;;;;;;1.73;1.15;;;;;;;;;;5091949;28;20415;-58
2023/01/02 12:56:40;;;;;;;2.72;1.33;;;;;;;;;;5092052;28;20044;-58
2023/01/02 12:59:24;;;;;;;3.80;1.33;;;;;;;;;;5092003;28;20067;-58
2023/01/02 13:01:53;;;;;;;1.05;0.80;;;;;;;;;;5088704;28;20138;-58
2023/01/02 13:04:25;;;;;;;2.88;1.25;;;;;;;;;;5091131;28;20612;-57
2023/01/02 13:07:10;;;;;;;1.52;0.90;;;;;;;;;;5091450;28;20052;-57
2023/01/02 13:09:41;;;;;;;1.73;0.65;;;;;;;;;;5091404;28;20056;-58
2023/01/02 13:12:28;;;;;;;0.90;0.60;;;;;;;;;;5091598;28;20466;-58
2023/01/02 13:14:56;;;;;;;2.13;0.70;;;;;;;;;;5091702;28;20101;-58
2023/01/02 13:17:41;;;;;;;2.95;1.27;;;;;;;;;;5087189;28;20051;-58
2023/01/02 13:20:19;;;;;;;3.78;2.35;;;;;;;;;;5089569;28;20555;-58
2023/01/02 13:22:50;;;;;;;3.33;1.85;;;;;;;;;;5090213;28;20058;-58
2023/01/02 13:25:21;;;;;;;1.33;1.13;;;;;;;;;;5090340;28;20086;-57
2023/01/02 13:27:48;;;;;;;;;;;;;;;;;;5091049;28;20113;-57
2023/01/02 13:30:32;;;;;;;5.32;1.58;;;;;;;;;;5091407;28;20007;-58
2023/01/02 13:33:00;;;;;;;3.17;0.90;;;;;;;;;;5092127;28;20058;-58
2023/01/02 13:35:28;;;;;;;2.38;1.20;;;;;;;;;;5091714;28;20039;-58
2023/01/02 13:37:55;;;;;;;2.95;1.70;;;;;;;;;;5088641;28;20399;-58
2023/01/02 13:40:27;;;;;;;1.85;1.67;;;;;;;;;;5091502;28;20044;-58
2023/01/02 13:42:58;;;;;;;4.07;1.70;;;;;;;;;;5091191;28;20130;-58
2023/01/02 13:45:43;;;;;;;2.35;1.45;;;;;;;;;;5091283;28;20046;-58
2023/01/02 13:48:25;;;;;;;3.13;1.73;;;;;;;;;;5091886;28;20052;-58
2023/01/02 13:50:59;;;;;;;2.08;1.50;;;;;;;;;;5091687;28;20051;-57
2023/01/02 13:53:28;;;;;;;4.20;2.10;;;;;;;;;;5088222;28;20373;-57
2023/01/02 13:56:08;;;;;;;3.10;1.05;;;;;;;;;;5091193;28;20139;-58
2023/01/02 13:58:36;;;;;;;1.70;0.93;;;;;;;;;;5091230;28;20135;-58
2023/01/02 14:01:22;;;;;;;1.77;1.30;;;;;;;;;;5092500;28;20058;-58
2023/01/02 14:03:49;;;;;;;3.15;1.80;;;;;;;;;;5095849;28;20075;-58
2023/01/02 14:06:26;;;;;;;3.20;2.70;;;;;;;;;;5095719;28;20044;-58
2023/01/02 14:09:16;;;;;;;2.17;1.70;;;;;;;;;;5095480;28;20048;-57
2023/01/02 14:11:54;;;;;;;1.98;1.48;;;;;;;;;;5087369;28;20040;-58
2023/01/02 14:14:22;;;;;;;2.63;1.70;;;;;;;;;;5095716;28;20036;-58
2023/01/02 14:16:59;;;;;;;2.70;1.48;;;;;;;;;;5095620;28;20048;-58
2023/01/02 14:19:25;;;;;;;2.30;1.17;;;;;;;;;;5094949;28;20052;-58
2023/01/02 14:21:58;;;;;;;1.15;0.85;;;;;;;;;;5092154;28;20116;-58
2023/01/02 14:24:26;;;;;;;2.65;1.20;;;;;;;;;;5094948;28;20055;-58
2023/01/02 14:26:57;;;;;;;5.20;2.28;;;;;;;;;;5094610;28;20056;-58
2023/01/02 14:29:24;;;;;;;7.97;4.35;;;;;;;;;;5094641;28;20050;-59
2023/01/02 14:31:57;;;;;;;2.17;1.50;;;;;;;;;;5094691;28;20052;-58
2023/01/02 14:34:24;;;;;;;3.45;2.13;;;;;;;;;;5095052;28;20534;-58
2023/01/02 14:36:50;;;;;;;;;;;;;;;;;;5095660;28;20117;-58
2023/01/02 14:39:17;;;;;;;;;;;;;;;;;;5094916;28;20459;-57
2023/01/02 14:44:55;;;;;;;22.95;19.50;;;;;;;;;;5094313;28;20043;-58
2023/01/02 14:47:26;;;;;;;16.05;14.38;;;;;;;;;;5094452;28;20568;-57
2023/01/02 14:49:54;;;;;;;26.65;24.00;;;;;;;;;;5094188;28;20048;-58
2023/01/02 14:52:26;;;;;;;2.38;1.15;;;;;;;;;;5093983;28;20126;-58
2023/01/02 14:54:55;;;;;;;1.25;1.00;;;;;;;;;;5094400;28;20048;-58
2023/01/02 14:57:32;;;;;;;3.22;1.05;;;;;;;;;;5094193;28;20047;-58